createdAt,value
2022-09-01T00:03:14.498Z,6.53
2022-09-01T00:07:36.860Z,6.18
2022-09-01T00:11:58.838Z,6.72
2022-09-01T00:16:21.575Z,6.45
2022-09-01T00:20:43.719Z,6.47
2022-09-01T00:25:08.619Z,6.28
2022-09-01T00:29:31.219Z,7.57
2022-09-01T00:33:53.240Z,6.38
2022-09-01T00:38:15.258Z,7.35
2022-09-01T00:42:39.979Z,7.55
2022-09-01T00:47:01.819Z,7.95
2022-09-01T00:51:24.321Z,8.52
2022-09-01T00:55:46.321Z,8.63
2022-09-01T01:00:15.840Z,9.10
2022-09-01T01:04:38.239Z,9.15
2022-09-01T01:09:01.590Z,9.50
2022-09-01T01:13:26.278Z,9.48
2022-09-01T01:17:48.539Z,9.57
2022-09-01T01:22:40.418Z,9.38
2022-09-01T01:27:03.638Z,10.50
2022-09-01T01:31:25.980Z,10.82
2022-09-01T01:35:48.239Z,11.25
2022-09-01T01:40:15.831Z,9.35
2022-09-01T01:44:40.959Z,10.38
2022-09-01T01:49:05.158Z,8.77
2022-09-01T01:53:29.019Z,8.80
2022-09-01T01:57:52.678Z,8.88
2022-09-01T02:02:16.762Z,9.40
2022-09-01T02:06:46.019Z,9.02
2022-09-01T02:11:09.142Z,8.10
2022-09-01T02:15:40.160Z,8.90
2022-09-01T02:20:02.186Z,7.97
2022-09-01T02:24:24.880Z,14.50
2022-09-01T02:28:54.671Z,7.65
2022-09-01T02:33:23.598Z,8.07
2022-09-01T02:37:49.519Z,9.50
2022-09-01T02:42:13.970Z,9.13
2022-09-01T02:46:38.118Z,8.63
2022-09-01T02:51:03.759Z,9.52
2022-09-01T02:55:26.151Z,10.07
2022-09-01T02:59:48.678Z,9.80
2022-09-01T03:04:12.799Z,10.57
2022-09-01T03:08:38.858Z,10.82
2022-09-01T03:13:08.502Z,10.65
2022-09-01T03:17:30.730Z,11.18
2022-09-01T03:21:52.858Z,11.30
2022-09-01T03:26:22.258Z,11.95
2022-09-01T03:30:49.878Z,11.77
2022-09-01T03:35:13.078Z,12.50
2022-09-01T03:39:36.098Z,12.77
2022-09-01T03:43:59.611Z,13.38
2022-09-01T03:48:26.818Z,12.07
2022-09-01T03:52:54.678Z,12.50
2022-09-01T03:57:16.558Z,13.02
2022-09-01T04:01:41.737Z,12.55
2022-09-01T04:06:04.500Z,13.55
2022-09-01T04:10:29.094Z,12.77
2022-09-01T04:14:51.398Z,15.18
2022-09-01T04:19:21.202Z,13.15
2022-09-01T04:23:45.618Z,13.57
2022-09-01T04:28:14.598Z,15.07
2022-09-01T04:32:40.458Z,16.42
2022-09-01T04:37:21.462Z,19.95
2022-09-01T04:41:51.359Z,17.25
2022-09-01T04:46:17.985Z,16.13
2022-09-01T04:50:42.898Z,17.48
2022-09-01T04:55:17.994Z,17.83
2022-09-01T04:59:41.158Z,16.20
2022-09-01T05:04:04.055Z,16.25
2022-09-01T05:08:36.268Z,14.30
2022-09-01T05:13:10.079Z,15.85
2022-09-01T05:17:33.462Z,14.90
2022-09-01T05:21:58.406Z,14.93
2022-09-01T05:26:30.203Z,11.93
2022-09-01T05:30:54.365Z,12.07
2022-09-01T05:35:17.730Z,11.27
2022-09-01T05:39:40.679Z,10.55
2022-09-01T05:44:08.295Z,9.98
2022-09-01T05:48:32.180Z,8.70
2022-09-01T05:52:54.058Z,7.32
2022-09-01T05:57:33.974Z,5.88
2022-09-01T06:01:57.478Z,5.65
2022-09-01T06:06:23.218Z,4.78
2022-09-01T06:10:45.539Z,4.20
2022-09-01T06:15:16.264Z,4.32
2022-09-01T06:19:44.461Z,3.47
2022-09-01T06:24:07.323Z,3.58
2022-09-01T06:28:30.278Z,3.25
2022-09-01T06:32:55.418Z,2.75
2022-09-01T06:37:22.672Z,2.40
2022-09-01T06:41:53.076Z,2.15
2022-09-01T06:46:20.919Z,2.42
2022-09-01T06:55:25.899Z,2.30
2022-09-01T06:59:49.260Z,2.80
2022-09-01T07:04:20.395Z,2.10
2022-09-01T07:13:35.860Z,2.00
2022-09-01T07:18:01.258Z,2.30
2022-09-01T07:23:03.632Z,2.00
2022-09-01T07:27:09.458Z,1.90
2022-09-01T07:36:29.375Z,2.08
2022-09-01T07:55:44.115Z,2.15
2022-09-01T08:00:07.640Z,2.13
2022-09-01T08:04:35.483Z,2.13
2022-09-01T08:09:01.022Z,1.80
2022-09-01T08:13:27.499Z,2.30
2022-09-01T08:17:52.112Z,1.85
2022-09-01T08:22:17.479Z,2.22
2022-09-01T08:26:50.039Z,2.00
2022-09-01T08:31:17.744Z,2.20
2022-09-01T08:35:47.221Z,2.40
2022-09-01T08:40:16.780Z,2.30
2022-09-01T08:44:46.016Z,2.40
2022-09-01T08:49:25.763Z,2.40
2022-09-01T08:54:29.902Z,2.47
2022-09-01T08:58:55.555Z,2.17
2022-09-01T09:03:40.751Z,2.17
2022-09-01T09:08:33.524Z,2.17
2022-09-01T09:13:17.005Z,2.05
2022-09-01T09:17:48.599Z,2.00
2022-09-01T09:22:15.101Z,2.05
2022-09-01T09:26:44.736Z,1.80
2022-09-01T09:31:28.656Z,1.48
2022-09-01T09:35:51.163Z,1.67
2022-09-01T09:40:27.578Z,2.10
2022-09-01T09:44:53.099Z,1.50
2022-09-01T09:49:35.939Z,2.33
2022-09-01T09:54:33.882Z,1.75
2022-09-01T09:58:56.060Z,1.33
2022-09-01T10:03:34.056Z,1.48
2022-09-01T10:07:58.840Z,1.52
2022-09-01T10:12:21.020Z,1.65
2022-09-01T10:16:47.923Z,1.30
2022-09-01T10:21:37.939Z,1.80
2022-09-01T10:26:19.479Z,1.70
2022-09-01T10:30:46.215Z,1.10
2022-09-01T10:35:20.039Z,1.60
2022-09-01T10:40:14.990Z,1.40
2022-09-01T10:44:59.018Z,1.30
2022-09-01T10:49:47.303Z,1.30
2022-09-01T10:54:10.551Z,1.02
2022-09-01T11:03:57.709Z,1.10
2022-09-01T11:08:28.798Z,1.25
2022-09-01T11:13:28.353Z,1.17
2022-09-01T11:17:53.079Z,1.20
2022-09-01T11:22:28.720Z,1.55
2022-09-01T11:26:52.719Z,0.95
2022-09-01T11:31:31.349Z,1.27
2022-09-01T11:36:13.066Z,1.10
2022-09-01T11:40:36.427Z,1.13
2022-09-01T11:45:22.678Z,1.27
2022-09-01T11:49:54.369Z,1.30
2022-09-01T11:54:16.698Z,1.10
2022-09-01T11:58:39.580Z,1.45
2022-09-01T12:03:02.004Z,1.10
2022-09-01T12:07:46.203Z,1.27
2022-09-01T12:12:36.546Z,1.20
2022-09-01T12:17:06.663Z,1.60
2022-09-01T12:21:43.845Z,1.63
2022-09-01T12:26:16.420Z,1.23
2022-09-01T12:30:40.860Z,1.23
2022-09-01T12:35:14.187Z,1.15
2022-09-01T12:39:44.795Z,1.50
2022-09-01T12:44:37.804Z,1.08
2022-09-01T12:49:49.972Z,1.55
2022-09-01T12:54:12.750Z,1.17
2022-09-01T12:58:35.238Z,1.40
2022-09-01T13:03:18.269Z,1.40
2022-09-01T13:07:40.658Z,1.75
2022-09-01T13:12:22.118Z,1.17
2022-09-01T13:16:44.408Z,1.23
2022-09-01T13:21:07.758Z,1.45
2022-09-01T13:25:29.803Z,1.80
2022-09-01T13:29:52.513Z,1.23
2022-09-01T13:34:22.310Z,1.40
2022-09-01T13:38:45.720Z,1.00
2022-09-01T13:43:15.347Z,1.45
2022-09-01T13:48:15.287Z,1.00
2022-09-01T13:52:19.859Z,0.90
2022-09-01T13:56:41.838Z,1.38
2022-09-01T14:01:05.195Z,1.30
2022-09-01T14:05:31.871Z,1.20
2022-09-01T14:09:55.173Z,1.40
2022-09-01T14:14:17.238Z,1.40
2022-09-01T14:18:39.845Z,1.35
2022-09-01T14:23:02.920Z,1.05
2022-09-01T14:27:24.858Z,1.20
2022-09-01T14:31:47.079Z,1.00
2022-09-01T14:36:18.338Z,1.35
2022-09-01T14:40:42.345Z,1.23
2022-09-01T14:45:06.137Z,1.48
2022-09-01T14:49:29.310Z,1.60
2022-09-01T14:53:54.953Z,1.20
2022-09-01T14:58:17.433Z,1.30
2022-09-01T15:02:41.862Z,1.10
2022-09-01T15:07:05.616Z,1.45
2022-09-01T15:11:28.799Z,1.35
2022-09-01T15:15:51.114Z,1.23
2022-09-01T15:20:31.917Z,1.55
2022-09-01T15:24:53.980Z,1.33
2022-09-01T15:29:16.359Z,1.40
2022-09-01T15:33:38.467Z,1.58
2022-09-01T15:38:01.212Z,1.15
2022-09-01T15:42:23.383Z,1.50
2022-09-01T15:46:46.054Z,1.33
2022-09-01T15:51:22.713Z,1.50
2022-09-01T15:55:48.179Z,1.40
2022-09-01T16:00:11.679Z,1.10
2022-09-01T16:04:34.159Z,1.35
2022-09-01T16:08:56.465Z,1.58
2022-09-01T16:13:19.016Z,1.40
2022-09-01T16:18:05.439Z,1.20
2022-09-01T16:22:33.299Z,1.35
2022-09-01T16:26:57.498Z,1.42
2022-09-01T16:31:31.067Z,1.52
2022-09-01T16:36:42.519Z,1.50
2022-09-01T16:41:44.799Z,1.52
2022-09-01T16:46:32.375Z,1.50
2022-09-01T16:51:18.619Z,1.83
2022-09-01T16:56:10.340Z,1.70
2022-09-01T17:01:17.361Z,1.90
2022-09-01T17:06:13.721Z,1.63
2022-09-01T17:10:56.539Z,1.55
2022-09-01T17:15:27.779Z,2.00
2022-09-01T17:19:54.503Z,1.63
2022-09-01T17:24:32.119Z,1.42
2022-09-01T17:29:26.419Z,1.40
2022-09-01T17:34:08.919Z,1.33
2022-09-01T17:38:57.779Z,1.70
2022-09-01T17:43:51.799Z,1.60
2022-09-01T17:48:22.064Z,1.83
2022-09-01T17:53:11.913Z,1.65
2022-09-01T17:58:15.232Z,1.70
2022-09-01T18:02:43.552Z,1.45
2022-09-01T18:07:35.580Z,1.17
2022-09-01T18:12:09.969Z,1.40
2022-09-01T18:16:47.060Z,2.00
2022-09-01T18:21:38.367Z,1.45
2022-09-01T18:26:29.818Z,1.85
2022-09-01T18:31:11.714Z,1.90
2022-09-01T18:35:54.383Z,1.55
2022-09-01T18:40:33.681Z,1.67
2022-09-01T18:45:07.842Z,1.52
2022-09-01T18:50:08.400Z,1.85
2022-09-01T18:54:37.659Z,1.90
2022-09-01T18:59:25.676Z,2.25
2022-09-01T19:04:19.439Z,2.15
2022-09-01T19:09:14.579Z,1.70
2022-09-01T19:13:56.800Z,1.60
2022-09-01T19:18:23.222Z,2.10
2022-09-01T19:23:27.198Z,1.88
2022-09-01T19:28:30.818Z,1.85
2022-09-01T19:32:53.679Z,2.30
2022-09-01T19:37:16.424Z,1.90
2022-09-01T19:41:51.520Z,2.50
2022-09-01T19:46:35.849Z,2.08
2022-09-01T19:51:08.293Z,2.10
2022-09-01T19:55:46.460Z,2.33
2022-09-01T20:00:13.940Z,2.00
2022-09-01T20:04:46.512Z,2.15
2022-09-01T20:09:37.631Z,2.22
2022-09-01T20:14:32.300Z,2.10
2022-09-01T20:19:22.919Z,1.92
2022-09-01T20:24:13.620Z,2.72
2022-09-01T20:28:59.740Z,1.80
2022-09-01T20:33:55.374Z,1.88
2022-09-01T20:38:52.503Z,2.13
2022-09-01T20:43:25.262Z,2.35
2022-09-01T20:47:55.543Z,1.80
2022-09-01T20:52:27.022Z,1.85
2022-09-01T20:56:51.505Z,2.35
2022-09-01T21:01:34.891Z,3.50
2022-09-01T21:06:43.622Z,3.55
2022-09-01T21:11:40.026Z,3.65
2022-09-01T21:16:31.057Z,3.92
2022-09-01T21:20:58.702Z,3.90
2022-09-01T21:25:20.802Z,3.90
2022-09-01T21:29:53.867Z,3.55
2022-09-01T21:34:17.056Z,3.45
2022-09-01T21:38:39.694Z,3.80
2022-09-01T21:43:07.046Z,3.25
2022-09-01T21:47:32.464Z,3.53
2022-09-01T21:51:54.362Z,4.10
2022-09-01T21:56:16.262Z,3.50
2022-09-01T22:00:40.582Z,4.43
2022-09-01T22:05:05.782Z,4.65
2022-09-01T22:09:28.702Z,3.35
2022-09-01T22:13:50.843Z,4.30
2022-09-01T22:18:14.242Z,3.20
2022-09-01T22:22:36.884Z,3.40
2022-09-01T22:26:59.082Z,3.83
2022-09-01T22:31:22.700Z,4.18
2022-09-01T22:35:48.823Z,2.75
2022-09-01T22:40:13.212Z,3.70
2022-09-01T22:44:35.122Z,3.42
2022-09-01T22:48:59.002Z,3.10
2022-09-01T22:53:22.764Z,3.13
2022-09-01T22:57:44.940Z,3.10
2022-09-01T23:02:07.181Z,3.47
2022-09-01T23:06:31.681Z,3.72
2022-09-01T23:10:54.340Z,3.92
2022-09-01T23:15:16.462Z,3.63
2022-09-01T23:19:38.361Z,3.25
2022-09-01T23:24:01.621Z,3.50
2022-09-01T23:28:24.264Z,3.72
2022-09-01T23:32:46.263Z,3.88
2022-09-01T23:37:08.264Z,3.63
2022-09-01T23:41:34.014Z,4.20
2022-09-01T23:45:57.190Z,3.83
2022-09-01T23:50:19.685Z,4.35
2022-09-01T23:54:41.621Z,4.95
2022-09-01T23:59:04.382Z,4.97
